Haynes, AR (72341)

5:38 AM CDT en Abril 01, 2015 (GMT -0500)
marianna,arrkansas | | Change Station
CLOSE
Current Station
Estación meteorológica personal
Location: Marianna, AR
Altura: 230 ft
Estaciones meteorológicas cercanas
Aviso en curso: Flood Warning Aviso activo: Local Storm Report

Alt 230 ft 34.77 °N, 90.77 °W | Updated 10 minutes ago

Despejado
Despejado
60.1 ° F
Sensación térmica 60.1 ° F
N
0.0
Viento Variable Viento desde SSO

Hoy
Alta -- | Baja -- ° F
--% Posibilidad de precipitaciones
Ayer
Alta -- | Baja -- ° F
Precip. -- pul
6:50 AM 7:23 PM
Gibosa creciente, 92% visible
Presión 29.99 pul
Visibilidad 7.0 Millas
Nubes Despejado
Punto de rocío 60 ° F
Humedad 99%
Precipitaciones 0.00 pul
Espesor de la nieve No disponible.
UV 0 de una escala de 12
Polen 10.20 de una escala de 12
Calidad del aire No disponible.
Flu Activity No disponible.
METAR KUTA 011035Z AUTO 13004KT 7SM CLR 14/13 A2999 RMK AO2

More Conditions Fewer Conditions

Presión 29.99 pul
Visibilidad 7.0 Millas
Nubes Despejado
Punto de rocío 60 ° F
Humedad 99%
Precipitaciones 0.00 pul
Espesor de la nieve No disponible.
UV 0 de una escala de 12
Polen 10.20 de una escala de 12
Calidad del aire No disponible.
Flu Activity No disponible.
METAR KUTA 011035Z AUTO 13004KT 7SM CLR 14/13 A2999 RMK AO2

More Conditions Fewer Conditions

10-Day Weather Forecast

Almanac

Astronomía

Apr. 01, 2015 Salida Puesta
Hora real
Crepúsculo civil
Crepúsculo náutico
Crepúsculo astronómico
Luna
Horas de luz
Horas de luz
Tomorrow will be .
, % of the Moon is Illuminated

Extremos de hoy

Máximos del estado Bajos del estado

Community

WunderPhotos

Upload Photos

1,809,934 ¡fotos cargadas!

WunderBlogs® & News

Nearby

Calidad del aire

  Calidad del aire Índice AQ Contaminante
Not available.

Grosos de nieve

Estación Profundido Altura

Actividad de terremotos

Ciudad Distance Mag. Tiempo y dato
Magnitud mínima muestra es 2,5.

Temperaturas de aguas costeras

Lugar Temperatura

Stations

Estaciones meteorológicas cercanas

Ubicación de la estación Temp. Vientos helados Punto de rocío Humedad Viento Precip. Alt Actualizado Tipo
                   
Flood Warning
Statement as of 9:21 PM CDT en Marzo 31, 2015

The Flood Warning continues for
the Mississippi River at Tunica Riverpark
* until Wednesday April 01.
* At 08 PM Tuesday the stage was 41.7 feet.
* Minor flooding is occurring and minor flooding is forecast.
* Flood stage is 41.0 feet.
* At 42.0 feet... casinos are open and unaffected. In Mississippi,
lots nearest Tunica Cutoff Lake in Lakeview Camp are under water.
South end of Mhoon Landing park is beginning to flood. In Arkansas,
roads from the levee to Buck Island are under water.


Lat... Lon 3491 9062 3491 9022 3480 9034 3450 9051
      3455 9059 3476 9074